sensor_id;sensor_type;location;lat;lon;timestamp;P1;durP1;ratioP1;P2;durP2;ratioP2
30127;SDS011;16942;53.196;6.592;2023-05-10T00:01:32;12.50;;;10.23;;
30127;SDS011;16942;53.196;6.592;2023-05-10T00:03:58;15.73;;;10.97;;
30127;SDS011;16942;53.196;6.592;2023-05-10T00:06:24;12.70;;;9.77;;
30127;SDS011;16942;53.196;6.592;2023-05-10T00:08:50;16.17;;;11.50;;
30127;SDS011;16942;53.196;6.592;2023-05-10T00:11:16;12.80;;;10.40;;
30127;SDS011;16942;53.196;6.592;2023-05-10T00:13:42;12.40;;;10.07;;
30127;SDS011;16942;53.196;6.592;2023-05-10T00:16:08;14.00;;;10.30;;
30127;SDS011;16942;53.196;6.592;2023-05-10T00:18:34;14.13;;;11.00;;
30127;SDS011;16942;53.196;6.592;2023-05-10T00:21:00;14.37;;;10.60;;
30127;SDS011;16942;53.196;6.592;2023-05-10T00:23:26;12.67;;;9.70;;
30127;SDS011;16942;53.196;6.592;2023-05-10T00:25:52;12.63;;;9.80;;
30127;SDS011;16942;53.196;6.592;2023-05-10T00:28:18;11.60;;;9.27;;
30127;SDS011;16942;53.196;6.592;2023-05-10T00:30:44;12.10;;;9.43;;
30127;SDS011;16942;53.196;6.592;2023-05-10T00:33:10;12.33;;;8.70;;
30127;SDS011;16942;53.196;6.592;2023-05-10T00:35:36;13.27;;;9.00;;
30127;SDS011;16942;53.196;6.592;2023-05-10T00:38:03;11.37;;;7.90;;
30127;SDS011;16942;53.196;6.592;2023-05-10T00:40:29;12.27;;;8.17;;
30127;SDS011;16942;53.196;6.592;2023-05-10T00:42:55;11.07;;;8.53;;
30127;SDS011;16942;53.196;6.592;2023-05-10T00:45:21;9.57;;;7.63;;
30127;SDS011;16942;53.196;6.592;2023-05-10T00:47:48;7.90;;;7.07;;
30127;SDS011;16942;53.196;6.592;2023-05-10T00:50:14;9.67;;;7.87;;
30127;SDS011;16942;53.196;6.592;2023-05-10T00:52:40;9.03;;;7.10;;
30127;SDS011;16942;53.196;6.592;2023-05-10T00:55:07;7.67;;;6.83;;
30127;SDS011;16942;53.196;6.592;2023-05-10T00:57:33;10.17;;;7.30;;
30127;SDS011;16942;53.196;6.592;2023-05-10T00:59:59;8.97;;;7.20;;
30127;SDS011;16942;53.196;6.592;2023-05-10T01:02:25;8.33;;;6.67;;
30127;SDS011;16942;53.196;6.592;2023-05-10T01:04:52;7.57;;;6.47;;
30127;SDS011;16942;53.196;6.592;2023-05-10T01:07:19;8.30;;;6.90;;
30127;SDS011;16942;53.196;6.592;2023-05-10T01:09:45;8.27;;;6.63;;
30127;SDS011;16942;53.196;6.592;2023-05-10T01:12:11;7.60;;;6.80;;
30127;SDS011;16942;53.196;6.592;2023-05-10T01:14:37;7.63;;;6.30;;
30127;SDS011;16942;53.196;6.592;2023-05-10T01:17:03;8.27;;;6.10;;
30127;SDS011;16942;53.196;6.592;2023-05-10T01:19:31;11.63;;;6.57;;
30127;SDS011;16942;53.196;6.592;2023-05-10T01:32:11;7.90;;;6.57;;
30127;SDS011;16942;53.196;6.592;2023-05-10T01:37:23;8.67;;;6.33;;
30127;SDS011;16942;53.196;6.592;2023-05-10T01:40:02;9.33;;;7.27;;
30127;SDS011;16942;53.196;6.592;2023-05-10T01:42:33;8.70;;;6.80;;
30127;SDS011;16942;53.196;6.592;2023-05-10T01:45:06;9.33;;;7.07;;
30127;SDS011;16942;53.196;6.592;2023-05-10T01:47:43;9.47;;;7.77;;
30127;SDS011;16942;53.196;6.592;2023-05-10T01:50:12;9.30;;;7.60;;
30127;SDS011;16942;53.196;6.592;2023-05-10T01:52:41;10.03;;;8.10;;
30127;SDS011;16942;53.196;6.592;2023-05-10T01:55:09;10.63;;;7.80;;
30127;SDS011;16942;53.196;6.592;2023-05-10T01:57:37;9.77;;;8.03;;
30127;SDS011;16942;53.196;6.592;2023-05-10T02:00:05;8.97;;;7.27;;
30127;SDS011;16942;53.196;6.592;2023-05-10T02:02:33;9.30;;;7.53;;
30127;SDS011;16942;53.196;6.592;2023-05-10T02:05:00;11.80;;;8.23;;
30127;SDS011;16942;53.196;6.592;2023-05-10T02:07:28;12.13;;;7.80;;
30127;SDS011;16942;53.196;6.592;2023-05-10T02:09:54;9.67;;;8.00;;
30127;SDS011;16942;53.196;6.592;2023-05-10T02:12:21;9.20;;;7.60;;
30127;SDS011;16942;53.196;6.592;2023-05-10T02:14:48;8.97;;;7.33;;
30127;SDS011;16942;53.196;6.592;2023-05-10T02:17:14;10.40;;;7.77;;
30127;SDS011;16942;53.196;6.592;2023-05-10T02:19:40;10.60;;;7.87;;
30127;SDS011;16942;53.196;6.592;2023-05-10T02:22:07;11.23;;;7.77;;
30127;SDS011;16942;53.196;6.592;2023-05-10T02:24:34;9.00;;;7.57;;
30127;SDS011;16942;53.196;6.592;2023-05-10T02:27:00;9.77;;;7.67;;
30127;SDS011;16942;53.196;6.592;2023-05-10T02:29:28;13.83;;;8.17;;
30127;SDS011;16942;53.196;6.592;2023-05-10T02:31:56;9.40;;;7.70;;
30127;SDS011;16942;53.196;6.592;2023-05-10T02:34:23;9.80;;;7.80;;
30127;SDS011;16942;53.196;6.592;2023-05-10T02:36:51;10.10;;;8.00;;
30127;SDS011;16942;53.196;6.592;2023-05-10T02:39:18;10.53;;;8.03;;
30127;SDS011;16942;53.196;6.592;2023-05-10T02:41:45;9.67;;;7.97;;
30127;SDS011;16942;53.196;6.592;2023-05-10T02:44:12;12.27;;;9.47;;
30127;SDS011;16942;53.196;6.592;2023-05-10T02:46:38;11.50;;;8.80;;
30127;SDS011;16942;53.196;6.592;2023-05-10T02:49:05;13.17;;;9.43;;
30127;SDS011;16942;53.196;6.592;2023-05-10T02:51:32;11.73;;;8.97;;
30127;SDS011;16942;53.196;6.592;2023-05-10T02:54:00;12.13;;;8.93;;
30127;SDS011;16942;53.196;6.592;2023-05-10T02:56:31;14.37;;;9.37;;
30127;SDS011;16942;53.196;6.592;2023-05-10T02:58:59;14.27;;;9.90;;
30127;SDS011;16942;53.196;6.592;2023-05-10T03:01:25;13.67;;;10.37;;
30127;SDS011;16942;53.196;6.592;2023-05-10T03:03:51;13.27;;;9.77;;
30127;SDS011;16942;53.196;6.592;2023-05-10T03:06:17;16.10;;;10.30;;
30127;SDS011;16942;53.196;6.592;2023-05-10T03:08:43;14.93;;;10.73;;
30127;SDS011;16942;53.196;6.592;2023-05-10T03:16:22;14.30;;;9.70;;
30127;SDS011;16942;53.196;6.592;2023-05-10T03:18:54;14.57;;;10.53;;
30127;SDS011;16942;53.196;6.592;2023-05-10T03:21:22;14.00;;;10.10;;
30127;SDS011;16942;53.196;6.592;2023-05-10T03:23:54;17.03;;;10.70;;
30127;SDS011;16942;53.196;6.592;2023-05-10T03:26:27;15.90;;;10.87;;
30127;SDS011;16942;53.196;6.592;2023-05-10T03:28:54;16.93;;;11.03;;
30127;SDS011;16942;53.196;6.592;2023-05-10T03:31:21;17.10;;;11.53;;
30127;SDS011;16942;53.196;6.592;2023-05-10T03:33:50;15.97;;;10.90;;
30127;SDS011;16942;53.196;6.592;2023-05-10T03:36:17;17.17;;;11.27;;
30127;SDS011;16942;53.196;6.592;2023-05-10T03:38:43;19.43;;;11.67;;
30127;SDS011;16942;53.196;6.592;2023-05-10T03:41:09;16.30;;;11.00;;
30127;SDS011;16942;53.196;6.592;2023-05-10T03:43:35;19.57;;;12.30;;
30127;SDS011;16942;53.196;6.592;2023-05-10T03:46:05;15.60;;;10.97;;
30127;SDS011;16942;53.196;6.592;2023-05-10T03:48:34;19.50;;;12.17;;
30127;SDS011;16942;53.196;6.592;2023-05-10T03:51:00;20.07;;;12.93;;
30127;SDS011;16942;53.196;6.592;2023-05-10T03:53:26;19.10;;;12.83;;
30127;SDS011;16942;53.196;6.592;2023-05-10T03:55:52;21.63;;;12.80;;
30127;SDS011;16942;53.196;6.592;2023-05-10T03:58:18;23.73;;;12.93;;
30127;SDS011;16942;53.196;6.592;2023-05-10T04:00:44;22.30;;;13.73;;
30127;SDS011;16942;53.196;6.592;2023-05-10T04:03:10;22.37;;;13.63;;
30127;SDS011;16942;53.196;6.592;2023-05-10T04:05:37;23.07;;;12.77;;
30127;SDS011;16942;53.196;6.592;2023-05-10T04:08:03;25.20;;;13.83;;
30127;SDS011;16942;53.196;6.592;2023-05-10T04:10:29;27.03;;;15.20;;
30127;SDS011;16942;53.196;6.592;2023-05-10T04:12:55;24.03;;;13.80;;
30127;SDS011;16942;53.196;6.592;2023-05-10T04:15:21;25.00;;;14.10;;
30127;SDS011;16942;53.196;6.592;2023-05-10T04:17:47;27.67;;;14.93;;
30127;SDS011;16942;53.196;6.592;2023-05-10T04:20:13;24.00;;;13.87;;
30127;SDS011;16942;53.196;6.592;2023-05-10T04:22:39;29.53;;;14.83;;
30127;SDS011;16942;53.196;6.592;2023-05-10T04:25:06;28.53;;;13.97;;
30127;SDS011;16942;53.196;6.592;2023-05-10T04:27:32;25.90;;;15.33;;
30127;SDS011;16942;53.196;6.592;2023-05-10T04:29:58;28.80;;;13.63;;
30127;SDS011;16942;53.196;6.592;2023-05-10T04:32:24;26.77;;;13.87;;
30127;SDS011;16942;53.196;6.592;2023-05-10T04:34:50;23.40;;;12.10;;
30127;SDS011;16942;53.196;6.592;2023-05-10T04:37:16;18.70;;;11.17;;
30127;SDS011;16942;53.196;6.592;2023-05-10T04:39:42;11.63;;;8.30;;
30127;SDS011;16942;53.196;6.592;2023-05-10T04:42:09;12.20;;;8.17;;
30127;SDS011;16942;53.196;6.592;2023-05-10T04:44:35;8.13;;;6.00;;
30127;SDS011;16942;53.196;6.592;2023-05-10T04:47:01;8.87;;;6.20;;
30127;SDS011;16942;53.196;6.592;2023-05-10T04:49:28;6.63;;;5.60;;
30127;SDS011;16942;53.196;6.592;2023-05-10T04:51:54;6.10;;;5.17;;
30127;SDS011;16942;53.196;6.592;2023-05-10T04:54:20;8.70;;;5.10;;
30127;SDS011;16942;53.196;6.592;2023-05-10T04:56:46;5.73;;;5.07;;
30127;SDS011;16942;53.196;6.592;2023-05-10T04:59:12;5.43;;;4.53;;
30127;SDS011;16942;53.196;6.592;2023-05-10T05:01:39;4.60;;;4.10;;
30127;SDS011;16942;53.196;6.592;2023-05-10T05:04:05;4.60;;;4.17;;
30127;SDS011;16942;53.196;6.592;2023-05-10T05:06:31;6.23;;;4.90;;
30127;SDS011;16942;53.196;6.592;2023-05-10T05:08:57;5.80;;;4.53;;
30127;SDS011;16942;53.196;6.592;2023-05-10T05:11:23;6.37;;;4.70;;
30127;SDS011;16942;53.196;6.592;2023-05-10T05:13:50;5.53;;;4.07;;
30127;SDS011;16942;53.196;6.592;2023-05-10T05:16:16;8.77;;;4.60;;
30127;SDS011;16942;53.196;6.592;2023-05-10T05:18:42;5.97;;;4.57;;
30127;SDS011;16942;53.196;6.592;2023-05-10T05:21:15;5.00;;;4.47;;
30127;SDS011;16942;53.196;6.592;2023-05-10T05:23:41;5.00;;;4.47;;
30127;SDS011;16942;53.196;6.592;2023-05-10T05:26:07;5.80;;;4.47;;
30127;SDS011;16942;53.196;6.592;2023-05-10T05:28:33;4.90;;;4.40;;
30127;SDS011;16942;53.196;6.592;2023-05-10T05:31:02;6.07;;;4.67;;
30127;SDS011;16942;53.196;6.592;2023-05-10T05:33:28;12.50;;;5.07;;
30127;SDS011;16942;53.196;6.592;2023-05-10T05:35:54;5.43;;;4.27;;
30127;SDS011;16942;53.196;6.592;2023-05-10T05:38:20;4.63;;;4.03;;
30127;SDS011;16942;53.196;6.592;2023-05-10T05:40:46;6.23;;;4.27;;
30127;SDS011;16942;53.196;6.592;2023-05-10T05:43:12;6.57;;;4.27;;
30127;SDS011;16942;53.196;6.592;2023-05-10T05:45:38;5.37;;;4.40;;
30127;SDS011;16942;53.196;6.592;2023-05-10T05:48:04;6.27;;;4.40;;
30127;SDS011;16942;53.196;6.592;2023-05-10T05:50:30;7.47;;;4.80;;
30127;SDS011;16942;53.196;6.592;2023-05-10T05:52:57;6.57;;;4.73;;
30127;SDS011;16942;53.196;6.592;2023-05-10T05:55:23;7.20;;;4.83;;
30127;SDS011;16942;53.196;6.592;2023-05-10T05:57:50;5.60;;;5.00;;
30127;SDS011;16942;53.196;6.592;2023-05-10T06:00:16;8.33;;;4.77;;
30127;SDS011;16942;53.196;6.592;2023-05-10T06:02:43;6.60;;;4.83;;
30127;SDS011;16942;53.196;6.592;2023-05-10T06:05:09;5.30;;;4.80;;
30127;SDS011;16942;53.196;6.592;2023-05-10T06:07:35;7.47;;;5.30;;
30127;SDS011;16942;53.196;6.592;2023-05-10T06:10:01;6.17;;;5.10;;
30127;SDS011;16942;53.196;6.592;2023-05-10T06:12:28;6.13;;;5.33;;
30127;SDS011;16942;53.196;6.592;2023-05-10T06:14:54;9.23;;;5.23;;
30127;SDS011;16942;53.196;6.592;2023-05-10T06:17:20;3.87;;;3.33;;
30127;SDS011;16942;53.196;6.592;2023-05-10T06:19:46;3.43;;;3.10;;
30127;SDS011;16942;53.196;6.592;2023-05-10T06:22:12;3.67;;;2.57;;
30127;SDS011;16942;53.196;6.592;2023-05-10T06:24:38;2.77;;;2.53;;
30127;SDS011;16942;53.196;6.592;2023-05-10T06:27:05;3.60;;;2.97;;
30127;SDS011;16942;53.196;6.592;2023-05-10T06:29:31;2.37;;;2.17;;
30127;SDS011;16942;53.196;6.592;2023-05-10T06:31:57;2.17;;;2.00;;
30127;SDS011;16942;53.196;6.592;2023-05-10T06:34:23;2.07;;;1.93;;
30127;SDS011;16942;53.196;6.592;2023-05-10T06:36:49;1.77;;;1.63;;
30127;SDS011;16942;53.196;6.592;2023-05-10T06:39:16;2.40;;;1.93;;
30127;SDS011;16942;53.196;6.592;2023-05-10T06:41:42;2.83;;;2.60;;
30127;SDS011;16942;53.196;6.592;2023-05-10T06:44:08;8.20;;;5.87;;
30127;SDS011;16942;53.196;6.592;2023-05-10T06:46:34;6.97;;;5.80;;
30127;SDS011;16942;53.196;6.592;2023-05-10T06:49:01;8.43;;;6.10;;
30127;SDS011;16942;53.196;6.592;2023-05-10T06:51:27;10.33;;;8.00;;
30127;SDS011;16942;53.196;6.592;2023-05-10T06:53:53;11.80;;;8.13;;
30127;SDS011;16942;53.196;6.592;2023-05-10T06:56:19;11.23;;;8.37;;
30127;SDS011;16942;53.196;6.592;2023-05-10T06:58:46;9.10;;;7.20;;
30127;SDS011;16942;53.196;6.592;2023-05-10T07:01:12;8.50;;;6.70;;
30127;SDS011;16942;53.196;6.592;2023-05-10T07:03:38;7.60;;;6.33;;
30127;SDS011;16942;53.196;6.592;2023-05-10T07:06:04;6.43;;;5.07;;
30127;SDS011;16942;53.196;6.592;2023-05-10T07:08:32;6.60;;;4.93;;
30127;SDS011;16942;53.196;6.592;2023-05-10T07:11:02;7.07;;;5.00;;
30127;SDS011;16942;53.196;6.592;2023-05-10T07:13:28;6.17;;;4.57;;
30127;SDS011;16942;53.196;6.592;2023-05-10T07:15:55;6.97;;;4.90;;
30127;SDS011;16942;53.196;6.592;2023-05-10T07:18:21;7.10;;;4.77;;
30127;SDS011;16942;53.196;6.592;2023-05-10T07:20:47;5.10;;;4.50;;
30127;SDS011;16942;53.196;6.592;2023-05-10T07:23:13;4.37;;;3.97;;
30127;SDS011;16942;53.196;6.592;2023-05-10T07:25:39;4.90;;;4.30;;
30127;SDS011;16942;53.196;6.592;2023-05-10T07:28:05;4.37;;;3.90;;
30127;SDS011;16942;53.196;6.592;2023-05-10T07:30:31;4.37;;;3.90;;
30127;SDS011;16942;53.196;6.592;2023-05-10T07:32:57;4.03;;;3.63;;
30127;SDS011;16942;53.196;6.592;2023-05-10T07:35:24;4.27;;;3.57;;
30127;SDS011;16942;53.196;6.592;2023-05-10T07:37:50;3.73;;;3.43;;
30127;SDS011;16942;53.196;6.592;2023-05-10T07:40:16;3.50;;;3.20;;
30127;SDS011;16942;53.196;6.592;2023-05-10T07:42:42;4.57;;;4.00;;
30127;SDS011;16942;53.196;6.592;2023-05-10T07:45:08;3.60;;;3.30;;
30127;SDS011;16942;53.196;6.592;2023-05-10T07:47:34;3.50;;;3.20;;
30127;SDS011;16942;53.196;6.592;2023-05-10T07:50:00;3.40;;;3.10;;
30127;SDS011;16942;53.196;6.592;2023-05-10T07:52:26;4.73;;;2.67;;
30127;SDS011;16942;53.196;6.592;2023-05-10T07:54:52;2.50;;;2.30;;
30127;SDS011;16942;53.196;6.592;2023-05-10T07:57:18;2.40;;;2.20;;
30127;SDS011;16942;53.196;6.592;2023-05-10T07:59:44;2.43;;;2.23;;
30127;SDS011;16942;53.196;6.592;2023-05-10T08:02:10;2.40;;;2.20;;
30127;SDS011;16942;53.196;6.592;2023-05-10T08:04:36;3.27;;;2.70;;
30127;SDS011;16942;53.196;6.592;2023-05-10T08:07:02;4.27;;;3.10;;
30127;SDS011;16942;53.196;6.592;2023-05-10T08:09:28;4.73;;;3.43;;
30127;SDS011;16942;53.196;6.592;2023-05-10T08:11:54;3.73;;;3.43;;
30127;SDS011;16942;53.196;6.592;2023-05-10T08:14:21;4.10;;;3.70;;
30127;SDS011;16942;53.196;6.592;2023-05-10T08:16:47;6.07;;;3.30;;
30127;SDS011;16942;53.196;6.592;2023-05-10T08:19:13;4.30;;;3.87;;
30127;SDS011;16942;53.196;6.592;2023-05-10T08:21:43;3.80;;;3.40;;
30127;SDS011;16942;53.196;6.592;2023-05-10T08:24:09;5.43;;;3.17;;
30127;SDS011;16942;53.196;6.592;2023-05-10T08:26:35;3.70;;;3.40;;
30127;SDS011;16942;53.196;6.592;2023-05-10T08:29:01;5.13;;;3.40;;
30127;SDS011;16942;53.196;6.592;2023-05-10T08:31:28;6.07;;;4.20;;
30127;SDS011;16942;53.196;6.592;2023-05-10T08:33:54;6.73;;;3.93;;
30127;SDS011;16942;53.196;6.592;2023-05-10T08:36:20;4.33;;;3.90;;
30127;SDS011;16942;53.196;6.592;2023-05-10T08:38:52;4.10;;;3.70;;
30127;SDS011;16942;53.196;6.592;2023-05-10T08:41:21;4.93;;;3.60;;
30127;SDS011;16942;53.196;6.592;2023-05-10T08:43:49;3.83;;;3.43;;
30127;SDS011;16942;53.196;6.592;2023-05-10T08:46:16;4.50;;;3.97;;
30127;SDS011;16942;53.196;6.592;2023-05-10T08:48:46;4.63;;;3.63;;
30127;SDS011;16942;53.196;6.592;2023-05-10T08:51:23;3.50;;;3.20;;
30127;SDS011;16942;53.196;6.592;2023-05-10T08:53:53;3.50;;;3.13;;
30127;SDS011;16942;53.196;6.592;2023-05-10T08:56:19;3.40;;;3.10;;
30127;SDS011;16942;53.196;6.592;2023-05-10T08:58:45;3.83;;;3.47;;
30127;SDS011;16942;53.196;6.592;2023-05-10T09:01:12;3.27;;;2.97;;
30127;SDS011;16942;53.196;6.592;2023-05-10T09:03:39;3.93;;;3.50;;
30127;SDS011;16942;53.196;6.592;2023-05-10T09:06:05;4.93;;;3.13;;
30127;SDS011;16942;53.196;6.592;2023-05-10T09:08:31;5.33;;;3.13;;
30127;SDS011;16942;53.196;6.592;2023-05-10T09:10:58;6.70;;;2.83;;
30127;SDS011;16942;53.196;6.592;2023-05-10T09:13:26;4.23;;;3.60;;
30127;SDS011;16942;53.196;6.592;2023-05-10T09:15:53;4.27;;;3.53;;
30127;SDS011;16942;53.196;6.592;2023-05-10T09:18:19;4.77;;;4.10;;
30127;SDS011;16942;53.196;6.592;2023-05-10T09:20:45;7.77;;;3.70;;
30127;SDS011;16942;53.196;6.592;2023-05-10T09:23:11;4.90;;;3.77;;
30127;SDS011;16942;53.196;6.592;2023-05-10T09:25:37;4.17;;;3.77;;
30127;SDS011;16942;53.196;6.592;2023-05-10T09:28:05;4.00;;;3.60;;
30127;SDS011;16942;53.196;6.592;2023-05-10T09:30:32;4.87;;;3.60;;
30127;SDS011;16942;53.196;6.592;2023-05-10T09:32:59;5.73;;;3.37;;
30127;SDS011;16942;53.196;6.592;2023-05-10T09:35:26;3.80;;;3.47;;
30127;SDS011;16942;53.196;6.592;2023-05-10T09:37:53;5.83;;;4.10;;
30127;SDS011;16942;53.196;6.592;2023-05-10T09:40:20;5.87;;;3.93;;
30127;SDS011;16942;53.196;6.592;2023-05-10T09:42:54;5.80;;;4.37;;
30127;SDS011;16942;53.196;6.592;2023-05-10T09:45:20;4.57;;;3.40;;
30127;SDS011;16942;53.196;6.592;2023-05-10T09:47:46;4.70;;;3.53;;
30127;SDS011;16942;53.196;6.592;2023-05-10T09:50:13;6.03;;;4.10;;
30127;SDS011;16942;53.196;6.592;2023-05-10T09:52:46;6.20;;;4.03;;
30127;SDS011;16942;53.196;6.592;2023-05-10T09:55:12;5.60;;;4.80;;
30127;SDS011;16942;53.196;6.592;2023-05-10T09:57:38;5.23;;;4.00;;
30127;SDS011;16942;53.196;6.592;2023-05-10T10:00:05;5.00;;;3.60;;
30127;SDS011;16942;53.196;6.592;2023-05-10T10:02:31;3.50;;;3.20;;
30127;SDS011;16942;53.196;6.592;2023-05-10T10:04:58;4.00;;;3.50;;
30127;SDS011;16942;53.196;6.592;2023-05-10T10:07:25;4.33;;;3.90;;
30127;SDS011;16942;53.196;6.592;2023-05-10T10:09:51;4.50;;;3.27;;
30127;SDS011;16942;53.196;6.592;2023-05-10T10:12:18;4.60;;;3.60;;
30127;SDS011;16942;53.196;6.592;2023-05-10T10:14:45;5.10;;;3.70;;
30127;SDS011;16942;53.196;6.592;2023-05-10T10:17:12;4.13;;;3.73;;
30127;SDS011;16942;53.196;6.592;2023-05-10T10:19:38;6.57;;;3.70;;
30127;SDS011;16942;53.196;6.592;2023-05-10T10:22:05;4.93;;;3.63;;
30127;SDS011;16942;53.196;6.592;2023-05-10T10:24:31;4.93;;;4.00;;
30127;SDS011;16942;53.196;6.592;2023-05-10T10:26:59;5.33;;;3.93;;
30127;SDS011;16942;53.196;6.592;2023-05-10T10:29:34;4.90;;;3.93;;
30127;SDS011;16942;53.196;6.592;2023-05-10T10:32:17;3.40;;;3.07;;
30127;SDS011;16942;53.196;6.592;2023-05-10T10:34:45;4.57;;;3.50;;
30127;SDS011;16942;53.196;6.592;2023-05-10T10:37:12;3.57;;;3.17;;
30127;SDS011;16942;53.196;6.592;2023-05-10T10:39:38;5.23;;;3.30;;
30127;SDS011;16942;53.196;6.592;2023-05-10T10:42:04;4.27;;;3.33;;
30127;SDS011;16942;53.196;6.592;2023-05-10T10:47:09;5.13;;;3.97;;
30127;SDS011;16942;53.196;6.592;2023-05-10T10:52:28;4.33;;;3.93;;
30127;SDS011;16942;53.196;6.592;2023-05-10T10:57:27;4.67;;;3.83;;
30127;SDS011;16942;53.196;6.592;2023-05-10T11:02:46;6.20;;;4.77;;
30127;SDS011;16942;53.196;6.592;2023-05-10T11:05:26;5.13;;;4.63;;
30127;SDS011;16942;53.196;6.592;2023-05-10T11:08:15;5.23;;;4.70;;
30127;SDS011;16942;53.196;6.592;2023-05-10T11:11:24;5.77;;;4.57;;
30127;SDS011;16942;53.196;6.592;2023-05-10T11:16:10;5.33;;;4.83;;
30127;SDS011;16942;53.196;6.592;2023-05-10T11:18:36;5.83;;;5.03;;
30127;SDS011;16942;53.196;6.592;2023-05-10T11:21:03;8.93;;;5.33;;
30127;SDS011;16942;53.196;6.592;2023-05-10T11:23:32;6.87;;;4.97;;
30127;SDS011;16942;53.196;6.592;2023-05-10T11:26:13;5.33;;;4.83;;
30127;SDS011;16942;53.196;6.592;2023-05-10T11:28:46;5.33;;;4.83;;
30127;SDS011;16942;53.196;6.592;2023-05-10T11:31:16;7.70;;;5.47;;
30127;SDS011;16942;53.196;6.592;2023-05-10T11:33:46;6.80;;;5.80;;
30127;SDS011;16942;53.196;6.592;2023-05-10T11:36:14;8.57;;;4.83;;
30127;SDS011;16942;53.196;6.592;2023-05-10T11:38:40;8.20;;;5.83;;
30127;SDS011;16942;53.196;6.592;2023-05-10T11:41:10;9.13;;;5.60;;
30127;SDS011;16942;53.196;6.592;2023-05-10T11:43:38;7.90;;;5.63;;
30127;SDS011;16942;53.196;6.592;2023-05-10T11:46:07;8.13;;;6.13;;
30127;SDS011;16942;53.196;6.592;2023-05-10T11:48:35;10.83;;;6.47;;
30127;SDS011;16942;53.196;6.592;2023-05-10T11:51:01;12.13;;;6.63;;
30127;SDS011;16942;53.196;6.592;2023-05-10T11:53:31;10.13;;;7.33;;
30127;SDS011;16942;53.196;6.592;2023-05-10T11:56:07;10.73;;;6.87;;
30127;SDS011;16942;53.196;6.592;2023-05-10T11:58:34;8.50;;;6.77;;
30127;SDS011;16942;53.196;6.592;2023-05-10T12:01:01;11.00;;;6.40;;
30127;SDS011;16942;53.196;6.592;2023-05-10T12:03:27;8.33;;;6.30;;
30127;SDS011;16942;53.196;6.592;2023-05-10T12:05:54;9.80;;;6.63;;
30127;SDS011;16942;53.196;6.592;2023-05-10T12:08:24;9.27;;;6.60;;
30127;SDS011;16942;53.196;6.592;2023-05-10T12:10:51;9.07;;;6.37;;
30127;SDS011;16942;53.196;6.592;2023-05-10T12:13:18;10.13;;;6.80;;
30127;SDS011;16942;53.196;6.592;2023-05-10T12:15:45;10.63;;;6.73;;
30127;SDS011;16942;53.196;6.592;2023-05-10T12:18:11;10.57;;;7.13;;
30127;SDS011;16942;53.196;6.592;2023-05-10T12:20:39;11.47;;;6.97;;
30127;SDS011;16942;53.196;6.592;2023-05-10T12:23:05;11.43;;;7.10;;
30127;SDS011;16942;53.196;6.592;2023-05-10T12:25:32;10.43;;;7.40;;
30127;SDS011;16942;53.196;6.592;2023-05-10T12:27:59;11.30;;;7.30;;
30127;SDS011;16942;53.196;6.592;2023-05-10T12:30:30;13.40;;;7.93;;
30127;SDS011;16942;53.196;6.592;2023-05-10T12:33:07;12.27;;;8.27;;
30127;SDS011;16942;53.196;6.592;2023-05-10T12:35:33;12.23;;;7.93;;
30127;SDS011;16942;53.196;6.592;2023-05-10T12:37:59;13.27;;;7.80;;
30127;SDS011;16942;53.196;6.592;2023-05-10T12:40:25;16.70;;;8.23;;
30127;SDS011;16942;53.196;6.592;2023-05-10T12:42:51;10.27;;;7.20;;
30127;SDS011;16942;53.196;6.592;2023-05-10T12:45:17;10.57;;;6.97;;
30127;SDS011;16942;53.196;6.592;2023-05-10T12:47:43;9.43;;;6.63;;
30127;SDS011;16942;53.196;6.592;2023-05-10T12:50:10;10.40;;;7.70;;
30127;SDS011;16942;53.196;6.592;2023-05-10T12:52:36;13.90;;;6.70;;
30127;SDS011;16942;53.196;6.592;2023-05-10T12:55:02;10.57;;;6.77;;
30127;SDS011;16942;53.196;6.592;2023-05-10T12:57:28;8.33;;;6.73;;
30127;SDS011;16942;53.196;6.592;2023-05-10T12:59:54;9.80;;;6.87;;
30127;SDS011;16942;53.196;6.592;2023-05-10T13:02:20;13.40;;;6.13;;
30127;SDS011;16942;53.196;6.592;2023-05-10T13:04:48;7.83;;;6.37;;
30127;SDS011;16942;53.196;6.592;2023-05-10T13:07:14;8.83;;;6.00;;
30127;SDS011;16942;53.196;6.592;2023-05-10T13:09:40;8.50;;;6.20;;
30127;SDS011;16942;53.196;6.592;2023-05-10T13:12:06;7.47;;;5.53;;
30127;SDS011;16942;53.196;6.592;2023-05-10T13:14:32;10.43;;;6.60;;
30127;SDS011;16942;53.196;6.592;2023-05-10T13:16:58;9.53;;;6.53;;
30127;SDS011;16942;53.196;6.592;2023-05-10T13:19:25;8.40;;;6.70;;
30127;SDS011;16942;53.196;6.592;2023-05-10T13:21:51;15.20;;;7.70;;
30127;SDS011;16942;53.196;6.592;2023-05-10T13:24:17;10.83;;;7.43;;
30127;SDS011;16942;53.196;6.592;2023-05-10T13:26:44;10.30;;;6.97;;
30127;SDS011;16942;53.196;6.592;2023-05-10T13:29:10;10.17;;;7.20;;
30127;SDS011;16942;53.196;6.592;2023-05-10T13:31:36;11.03;;;6.87;;
30127;SDS011;16942;53.196;6.592;2023-05-10T13:34:03;9.53;;;6.43;;
30127;SDS011;16942;53.196;6.592;2023-05-10T13:36:29;10.53;;;7.57;;
30127;SDS011;16942;53.196;6.592;2023-05-10T13:38:55;8.00;;;5.93;;
30127;SDS011;16942;53.196;6.592;2023-05-10T13:41:21;10.17;;;7.40;;
30127;SDS011;16942;53.196;6.592;2023-05-10T13:43:47;10.73;;;7.13;;
30127;SDS011;16942;53.196;6.592;2023-05-10T13:46:14;10.77;;;7.13;;
30127;SDS011;16942;53.196;6.592;2023-05-10T13:48:40;10.53;;;6.93;;
30127;SDS011;16942;53.196;6.592;2023-05-10T13:51:06;10.50;;;7.47;;
30127;SDS011;16942;53.196;6.592;2023-05-10T13:53:32;9.60;;;6.93;;
30127;SDS011;16942;53.196;6.592;2023-05-10T13:55:58;10.20;;;7.63;;
30127;SDS011;16942;53.196;6.592;2023-05-10T13:58:24;13.83;;;7.23;;
30127;SDS011;16942;53.196;6.592;2023-05-10T14:00:50;8.83;;;7.00;;
30127;SDS011;16942;53.196;6.592;2023-05-10T14:03:16;10.90;;;7.87;;
30127;SDS011;16942;53.196;6.592;2023-05-10T14:05:42;10.67;;;6.87;;
30127;SDS011;16942;53.196;6.592;2023-05-10T14:08:09;10.43;;;7.13;;
30127;SDS011;16942;53.196;6.592;2023-05-10T14:10:38;10.43;;;7.00;;
30127;SDS011;16942;53.196;6.592;2023-05-10T14:13:04;11.17;;;7.70;;
30127;SDS011;16942;53.196;6.592;2023-05-10T14:15:31;11.30;;;7.10;;
30127;SDS011;16942;53.196;6.592;2023-05-10T14:17:57;10.73;;;7.53;;
30127;SDS011;16942;53.196;6.592;2023-05-10T14:20:23;9.50;;;6.80;;
30127;SDS011;16942;53.196;6.592;2023-05-10T14:22:49;12.33;;;8.10;;
30127;SDS011;16942;53.196;6.592;2023-05-10T14:25:15;13.40;;;8.40;;
30127;SDS011;16942;53.196;6.592;2023-05-10T14:27:41;13.03;;;7.97;;
30127;SDS011;16942;53.196;6.592;2023-05-10T14:30:07;16.53;;;9.27;;
30127;SDS011;16942;53.196;6.592;2023-05-10T14:32:33;12.63;;;6.87;;
30127;SDS011;16942;53.196;6.592;2023-05-10T14:35:01;27.73;;;10.83;;
30127;SDS011;16942;53.196;6.592;2023-05-10T14:37:27;12.27;;;7.67;;
30127;SDS011;16942;53.196;6.592;2023-05-10T14:39:53;14.07;;;8.57;;
30127;SDS011;16942;53.196;6.592;2023-05-10T14:42:19;11.43;;;7.70;;
30127;SDS011;16942;53.196;6.592;2023-05-10T14:44:46;15.07;;;9.23;;
30127;SDS011;16942;53.196;6.592;2023-05-10T14:47:12;10.77;;;8.03;;
30127;SDS011;16942;53.196;6.592;2023-05-10T14:49:38;12.40;;;8.43;;
30127;SDS011;16942;53.196;6.592;2023-05-10T14:52:04;17.33;;;9.20;;
30127;SDS011;16942;53.196;6.592;2023-05-10T14:54:30;16.07;;;9.13;;
30127;SDS011;16942;53.196;6.592;2023-05-10T14:56:58;12.83;;;8.23;;
30127;SDS011;16942;53.196;6.592;2023-05-10T14:59:25;10.83;;;7.60;;
30127;SDS011;16942;53.196;6.592;2023-05-10T15:01:51;10.87;;;7.63;;
30127;SDS011;16942;53.196;6.592;2023-05-10T15:04:17;8.53;;;6.77;;
30127;SDS011;16942;53.196;6.592;2023-05-10T15:06:43;8.83;;;6.60;;
30127;SDS011;16942;53.196;6.592;2023-05-10T15:09:09;15.07;;;8.43;;
30127;SDS011;16942;53.196;6.592;2023-05-10T15:11:36;12.17;;;7.40;;